Time;durP1;ratioP1;P1;durP2;ratioP2;P2;SDS_P1;SDS_P2;PMS_P1;PMS_P2;Temp;Humidity;BMP_temperature;BMP_pressure;BME280_temperature;BME280_humidity;BME280_pressure;Samples;Min_cycle;Max_cycle;Signal;HPM_P1;HPM_P2
2024/04/16 00:00:07;;;;;;;23.42;8.23;;;14.50;99.90;;;20.05;52.64;97548.03;4998776;28;20019;-84
2024/04/16 00:02:45;;;;;;;21.40;7.05;;;14.50;99.90;;;20.09;52.36;97548.41;5016749;28;20021;-84
2024/04/16 00:05:13;;;;;;;18.65;6.80;;;14.50;99.90;;;20.09;53.00;97535.13;4992964;28;20090;-84
2024/04/16 00:07:44;;;;;;;24.98;7.88;;;14.50;99.90;;;20.07;52.82;97537.19;4991575;28;20024;-82
2024/04/16 00:10:11;;;;;;;20.55;7.53;;;14.50;99.90;;;20.05;52.87;97533.94;4991051;28;20013;-82
2024/04/16 00:12:47;;;;;;;18.42;7.43;;;14.50;99.90;;;20.00;52.97;97526.56;4990725;28;20348;-82
2024/04/16 00:15:33;;;;;;;24.88;7.65;;;14.40;99.90;;;19.93;53.14;97519.63;4990621;28;20013;-82
2024/04/16 00:18:07;;;;;;;19.75;6.72;;;14.40;99.90;;;19.88;52.97;97501.66;4987822;28;20482;-81
2024/04/16 00:20:34;;;;;;;16.70;6.55;;;14.40;99.90;;;19.92;53.13;97494.91;4991842;28;20025;-83
2024/04/16 00:23:05;;;;;;;14.98;6.28;;;14.40;99.90;;;19.91;52.86;97489.81;4992458;28;20027;-84
2024/04/16 00:25:33;;;;;;;17.85;6.20;;;14.30;99.90;;;19.91;53.15;97479.19;5016359;28;20436;-83
2024/04/16 00:28:03;;;;;;;19.05;6.90;;;14.30;99.90;;;19.83;53.43;97469.59;5016154;28;20016;-83
2024/04/16 00:30:31;;;;;;;18.63;7.80;;;14.20;99.90;;;19.76;53.63;97470.63;4992019;28;20459;-83
2024/04/16 00:33:01;;;;;;;32.03;8.02;;;14.20;99.90;;;19.72;53.89;97461.44;5015769;28;20016;-83
2024/04/16 00:35:36;;;;;;;22.88;7.32;;;14.20;99.90;;;19.65;53.78;97445.53;4998616;28;20053;-83
2024/04/16 00:38:07;;;;;;;16.33;6.97;;;14.10;99.90;;;19.58;53.46;97448.19;4961597;28;20017;-82
2024/04/16 00:40:39;;;;;;;13.63;6.35;;;14.10;99.90;;;19.57;53.88;97462.47;4989673;28;20012;-83
2024/04/16 00:43:18;;;;;;;25.48;8.30;;;14.10;99.90;;;19.48;53.95;97442.47;5016829;28;20015;-83
2024/04/16 00:45:50;;;;;;;23.45;8.45;;;14.10;99.90;;;19.50;54.40;97437.75;5009982;28;20024;-83
2024/04/16 00:48:29;;;;;;;13.27;7.30;;;14.00;99.90;;;19.49;54.54;97437.97;5006569;28;20012;-84
2024/04/16 00:51:00;;;;;;;18.55;7.85;;;14.00;99.90;;;19.46;54.07;97427.78;5020902;28;20347;-82
2024/04/16 00:53:30;;;;;;;17.05;7.25;;;13.90;99.90;;;19.41;54.21;97420.41;5002983;28;20931;-83
2024/04/16 00:55:58;;;;;;;16.10;7.18;;;13.90;99.90;;;19.37;54.43;97420.97;4993111;28;20090;-82
2024/04/16 00:58:29;;;;;;;20.77;8.02;;;13.90;99.90;;;19.34;54.53;97406.28;5019258;28;20024;-82
2024/04/16 01:00:58;;;;;;;17.38;8.05;;;13.90;99.90;;;19.34;55.03;97402.81;4991170;28;20024;-82
2024/04/16 01:03:28;;;;;;;17.42;7.75;;;13.80;99.90;;;19.33;54.91;97399.34;4990249;28;20013;-82
2024/04/16 01:05:56;;;;;;;22.85;8.55;;;13.80;99.90;;;19.34;54.56;97392.22;4990067;28;20028;-82
2024/04/16 01:08:29;;;;;;;20.90;9.43;;;13.80;99.90;;;19.25;54.89;97385.47;5005108;28;20669;-82
2024/04/16 01:10:57;;;;;;;18.58;9.32;;;13.80;99.90;;;19.20;55.39;97378.13;4997169;28;20483;-82
2024/04/16 01:13:27;;;;;;;22.25;10.80;;;13.80;99.90;;;19.18;55.59;97380.19;5005914;28;20094;-82
2024/04/16 01:15:55;;;;;;;22.35;10.82;;;13.70;99.90;;;19.09;55.42;97376.94;4993768;28;20016;-85
2024/04/16 01:18:25;;;;;;;21.00;10.50;;;13.60;99.90;;;19.03;55.90;97379.56;4991131;28;20027;-85
2024/04/16 01:20:53;;;;;;;20.10;10.43;;;13.60;99.90;;;18.89;55.53;97381.41;5016196;28;20029;-83
2024/04/16 01:23:26;;;;;;;21.35;10.95;;;13.50;99.90;;;18.83;55.95;97390.16;5028939;28;20359;-83
2024/04/16 01:25:54;;;;;;;19.38;9.95;;;13.50;99.90;;;18.75;55.96;97379.75;5007778;28;20086;-82
2024/04/16 01:28:24;;;;;;;21.77;11.40;;;13.40;99.90;;;18.72;56.07;97388.09;5019146;28;20037;-82
2024/04/16 01:30:52;;;;;;;21.85;10.40;;;13.40;99.90;;;18.67;56.30;97380.72;4997247;28;20094;-82
2024/04/16 01:33:22;;;;;;;20.25;10.18;;;13.30;99.90;;;18.61;56.29;97380.72;5004735;28;20022;-82
2024/04/16 01:35:53;;;;;;;27.73;13.02;;;13.30;99.90;;;18.60;56.42;97376.47;4999068;28;20013;-82
2024/04/16 01:38:26;;;;;;;22.63;11.38;;;13.30;99.90;;;18.57;56.52;97361.75;5021541;28;20029;-82
2024/04/16 01:40:54;;;;;;;19.77;10.02;;;13.20;99.90;;;18.50;56.93;97360.13;5026155;28;20015;-81
2024/04/16 01:43:24;;;;;;;25.98;12.98;;;13.20;99.90;;;18.47;56.74;97355.19;4987889;28;20094;-81
2024/04/16 01:45:52;;;;;;;28.13;13.45;;;13.20;99.90;;;18.30;57.30;97346.78;4986686;28;20012;-80
2024/04/16 01:48:22;;;;;;;21.92;12.00;;;13.10;99.90;;;18.24;57.54;97333.53;5019235;28;20021;-82
2024/04/16 01:50:50;;;;;;;24.65;12.02;;;13.10;99.90;;;18.28;57.37;97324.16;5025437;28;20016;-82
2024/04/16 01:53:21;;;;;;;23.80;11.30;;;13.10;99.90;;;18.31;57.25;97313.19;5017398;28;20025;-82
2024/04/16 01:55:51;;;;;;;22.02;11.73;;;13.10;99.90;;;18.32;57.03;97314.78;4990715;28;20032;-82
2024/04/16 01:58:22;;;;;;;26.27;10.77;;;13.10;99.90;;;18.34;56.93;97310.13;5012932;28;20012;-82
2024/04/16 02:00:58;;;;;;;22.13;10.60;;;13.10;99.90;;;18.37;56.99;97317.69;5014628;28;20013;-83
2024/04/16 02:03:28;;;;;;;17.98;9.05;;;13.10;99.90;;;18.42;57.19;97310.75;4990170;28;20020;-82
2024/04/16 02:05:57;;;;;;;20.27;10.73;;;13.10;99.90;;;18.47;56.88;97307.50;5013408;28;20021;-82
2024/04/16 02:08:28;;;;;;;23.98;10.93;;;13.10;99.90;;;18.52;56.60;97305.91;4990425;28;20483;-82
2024/04/16 02:10:58;;;;;;;20.35;11.43;;;13.10;99.90;;;18.53;56.29;97304.06;4990228;28;20045;-82
2024/04/16 02:13:29;;;;;;;24.30;11.02;;;13.10;99.90;;;18.43;56.90;97291.19;4990222;28;20533;-82
2024/04/16 02:15:57;;;;;;;28.15;12.82;;;13.00;99.90;;;18.34;57.02;97286.28;4982980;28;20012;-82
2024/04/16 02:18:28;;;;;;;26.65;12.40;;;13.00;99.90;;;18.23;56.85;97277.09;5014030;28;20496;-81
2024/04/16 02:20:55;;;;;;;28.02;12.43;;;12.90;99.90;;;18.15;57.15;97293.97;5017729;28;20020;-82
2024/04/16 02:23:26;;;;;;;24.67;12.55;;;12.80;99.90;;;18.08;57.68;97285.19;4990817;28;20019;-81
2024/04/16 02:25:54;;;;;;;23.67;12.48;;;12.80;99.90;;;18.01;58.06;97286.22;4991991;28;20013;-80
2024/04/16 02:28:27;;;;;;;29.35;14.15;;;12.80;99.90;;;17.95;57.61;97277.22;5020405;28;20478;-81
2024/04/16 02:30:55;;;;;;;28.27;14.05;;;12.70;99.90;;;17.92;57.66;97264.38;4991693;28;20013;-82
2024/04/16 02:33:25;;;;;;;24.98;12.80;;;12.70;99.90;;;17.93;58.31;97263.38;4990208;28;20016;-82
2024/04/16 02:35:55;;;;;;;29.95;16.33;;;12.70;99.90;;;17.96;58.18;97262.16;5019399;28;20026;-82
2024/04/16 02:38:25;;;;;;;30.63;16.15;;;12.70;99.90;;;17.89;58.14;97256.84;4995982;28;20028;-82
2024/04/16 02:40:53;;;;;;;31.58;15.35;;;12.70;99.90;;;17.79;58.17;97253.75;4989308;28;20020;-81
2024/04/16 02:43:24;;;;;;;29.65;13.50;;;12.60;99.90;;;17.74;58.53;97256.19;5013342;28;20017;-81
2024/04/16 02:45:54;;;;;;;23.58;12.98;;;12.60;99.90;;;17.71;59.11;97250.47;4989579;28;20032;-81
2024/04/16 02:48:24;;;;;;;23.95;13.98;;;12.60;99.90;;;17.73;58.84;97243.97;4988610;28;20465;-81
2024/04/16 02:50:54;;;;;;;25.77;13.02;;;12.60;99.90;;;17.69;58.73;97229.47;4996584;28;20012;-81
2024/04/16 02:53:24;;;;;;;36.65;12.77;;;12.60;99.90;;;17.61;58.64;97224.38;4989117;28;20009;-82
2024/04/16 02:55:52;;;;;;;23.88;12.05;;;12.50;99.90;;;17.63;59.20;97233.75;4999792;28;20008;-83
2024/04/16 02:58:22;;;;;;;25.77;13.15;;;12.50;99.90;;;17.65;58.68;97228.25;5019868;28;20011;-82
2024/04/16 03:00:50;;;;;;;27.05;12.52;;;12.50;99.90;;;17.65;58.84;97235.38;5017074;28;20078;-82
2024/04/16 03:03:23;;;;;;;26.27;12.70;;;12.50;99.90;;;17.63;58.54;97228.44;4989273;28;20028;-81
2024/04/16 03:05:56;;;;;;;25.95;14.25;;;12.50;99.90;;;17.65;58.95;97220.31;5011754;28;20017;-82
2024/04/16 03:08:26;;;;;;;28.48;14.00;;;12.50;99.90;;;17.69;59.13;97224.19;4987532;28;20097;-82
2024/04/16 03:10:57;;;;;;;25.80;13.43;;;12.50;99.90;;;17.76;58.25;97224.22;5025057;28;20022;-82
2024/04/16 03:13:27;;;;;;;20.77;12.50;;;12.50;99.90;;;17.77;58.65;97205.50;5042820;28;20024;-82
2024/04/16 03:15:55;;;;;;;24.77;11.82;;;12.50;99.90;;;17.75;58.71;97206.72;4981265;28;20025;-83
2024/04/16 03:18:28;;;;;;;25.27;12.85;;;12.40;99.90;;;17.72;58.90;97204.44;5037260;28;20016;-83
2024/04/16 03:21:00;;;;;;;29.60;12.75;;;12.40;99.90;;;17.71;58.71;97200.19;5016395;28;20472;-83
2024/04/16 03:23:30;;;;;;;25.45;13.32;;;12.40;99.90;;;17.62;58.34;97194.25;5044767;28;20016;-84
2024/04/16 03:26:02;;;;;;;28.27;12.40;;;12.30;99.90;;;17.57;58.70;97189.56;5038267;28;20094;-83
2024/04/16 03:28:32;;;;;;;24.20;12.38;;;12.30;99.90;;;17.48;59.36;97176.69;4987028;28;20343;-84
2024/04/16 03:31:00;;;;;;;29.58;12.13;;;12.30;99.90;;;17.44;59.02;97180.72;5011725;28;20475;-83
2024/04/16 03:33:34;;;;;;;30.88;13.52;;;12.20;99.90;;;17.40;59.03;97174.19;5008084;28;20016;-83
2024/04/16 03:36:02;;;;;;;23.67;11.82;;;12.20;99.90;;;17.45;59.06;97182.38;5013879;28;20036;-83
2024/04/16 03:38:33;;;;;;;21.73;11.30;;;12.20;99.90;;;17.47;59.23;97185.63;5011711;28;20013;-82
2024/04/16 03:41:03;;;;;;;22.25;11.05;;;12.20;99.90;;;17.51;58.65;97179.75;4988794;28;20012;-84
2024/04/16 03:43:35;;;;;;;24.58;12.73;;;12.20;99.90;;;17.56;58.51;97176.53;5011219;28;20008;-83
2024/04/16 03:46:04;;;;;;;25.88;12.70;;;12.10;99.90;;;17.52;58.62;97177.91;5012240;28;20017;-84
2024/04/16 03:48:37;;;;;;;20.50;11.80;;;12.10;99.90;;;17.53;58.58;97183.00;5016059;28;20028;-84
2024/04/16 03:51:04;;;;;;;25.90;11.98;;;12.10;99.90;;;17.59;58.56;97178.75;5016505;28;20093;-84
2024/04/16 03:53:35;;;;;;;26.73;13.43;;;12.20;99.90;;;17.60;59.13;97180.41;5015429;28;20028;-83
2024/04/16 03:56:03;;;;;;;20.98;12.07;;;12.10;99.90;;;17.65;58.49;97166.59;4998027;28;20094;-82
2024/04/16 03:58:43;;;;;;;22.23;12.25;;;12.10;99.90;;;17.65;58.70;97170.03;4991362;28;20020;-83
2024/04/16 04:01:13;;;;;;;24.23;12.20;;;12.10;99.90;;;17.54;58.97;97167.94;4986610;28;20024;-82
2024/04/16 04:03:46;;;;;;;24.50;12.23;;;12.10;99.90;;;17.52;58.56;97164.66;5022562;28;20053;-82
2024/04/16 04:06:14;;;;;;;26.08;12.55;;;12.10;99.90;;;17.47;58.71;97161.81;5015411;28;20026;-81
2024/04/16 04:08:44;;;;;;;25.58;13.90;;;12.10;99.90;;;17.43;59.06;97161.41;4987109;28;20019;-82
2024/04/16 04:11:12;;;;;;;21.52;12.32;;;12.10;99.90;;;17.41;58.93;97152.84;4992802;28;20314;-81
2024/04/16 04:13:42;;;;;;;25.90;13.00;;;12.10;99.90;;;17.45;59.16;97159.34;4997589;28;20016;-81
2024/04/16 04:16:12;;;;;;;22.90;12.48;;;12.10;99.90;;;17.39;59.22;97156.69;4995264;28;20019;-82
2024/04/16 04:18:42;;;;;;;25.85;12.07;;;12.10;99.90;;;17.33;59.71;97139.78;5008495;28;20015;-82
2024/04/16 04:21:13;;;;;;;24.23;13.73;;;12.10;99.90;;;17.39;59.16;97141.63;4987237;28;20027;-81
2024/04/16 04:23:43;;;;;;;26.67;14.82;;;12.00;99.90;;;17.33;59.86;97139.78;5016464;28;20495;-81
2024/04/16 04:26:11;;;;;;;31.65;15.50;;;12.00;99.90;;;17.32;59.74;97153.22;4994726;28;20035;-80
2024/04/16 04:28:41;;;;;;;26.80;16.20;;;12.00;99.90;;;17.28;60.08;97147.53;5001061;28;20016;-81
2024/04/16 04:31:16;;;;;;;25.50;16.50;;;12.00;99.90;;;17.22;59.35;97136.91;5009980;28;20089;-79
2024/04/16 04:33:47;;;;;;;27.63;15.13;;;12.00;99.90;;;17.25;59.51;97136.53;4987861;28;20024;-80
2024/04/16 04:36:18;;;;;;;25.10;14.33;;;11.90;99.90;;;17.21;60.31;97137.91;4991774;28;20008;-80
2024/04/16 04:38:48;;;;;;;26.23;15.43;;;12.00;99.90;;;17.17;59.67;97137.50;5006437;28;20008;-80
2024/04/16 04:41:16;;;;;;;25.60;13.90;;;11.90;99.90;;;17.18;59.62;97133.03;5006481;28;20483;-80
2024/04/16 04:43:49;;;;;;;27.27;14.77;;;11.90;99.90;;;17.19;60.23;97134.66;4999551;28;20031;-80
2024/04/16 04:46:17;;;;;;;30.80;14.05;;;11.90;99.90;;;17.25;59.92;97137.34;4994867;28;20049;-80
2024/04/16 04:48:47;;;;;;;25.90;14.85;;;12.00;99.90;;;17.24;59.66;97129.59;5014822;28;20035;-80
2024/04/16 04:51:18;;;;;;;33.35;14.98;;;12.00;99.90;;;17.25;59.84;97132.06;4988368;28;20056;-80
2024/04/16 04:53:48;;;;;;;25.52;14.43;;;12.00;99.90;;;17.25;60.12;97128.59;5006376;28;20021;-80
2024/04/16 04:56:16;;;;;;;27.63;14.38;;;12.00;99.90;;;17.28;60.04;97123.72;4991496;28;20008;-80
2024/04/16 04:58:46;;;;;;;29.60;15.73;;;12.00;99.90;;;17.26;60.17;97122.25;4996148;28;20353;-81
2024/04/16 05:01:14;;;;;;;27.95;15.32;;;12.10;99.90;;;17.29;60.06;97124.53;4981142;28;20008;-80
2024/04/16 05:03:45;;;;;;;30.27;15.35;;;12.10;99.90;;;17.34;59.83;97124.75;4988890;28;20289;-80
2024/04/16 05:06:12;;;;;;;28.05;14.77;;;12.10;99.90;;;17.39;60.51;97127.59;4986855;28;20008;-80
2024/04/16 05:08:45;;;;;;;26.63;15.32;;;12.10;99.90;;;17.40;59.57;97122.13;4985425;28;20568;-80
2024/04/16 05:11:13;;;;;;;24.27;15.10;;;12.10;99.90;;;17.43;59.69;97123.53;4990094;28;20016;-79
2024/04/16 05:13:43;;;;;;;29.98;16.35;;;12.10;99.90;;;17.41;60.20;97118.47;4981718;28;20086;-79
2024/04/16 05:16:11;;;;;;;27.25;14.77;;;12.10;99.90;;;17.44;59.66;97114.59;4978488;28;20024;-80
2024/04/16 05:18:41;;;;;;;28.05;15.10;;;12.10;99.90;;;17.47;59.43;97114.19;4984602;28;20017;-79
2024/04/16 05:21:10;;;;;;;29.00;15.85;;;12.10;99.90;;;17.50;60.18;97124.38;5008116;28;20132;-79
2024/04/16 05:23:40;;;;;;;38.55;17.45;;;12.20;99.90;;;17.50;59.76;97119.09;4989577;28;20459;-80
2024/04/16 05:26:11;;;;;;;27.80;15.27;;;12.20;99.90;;;17.53;59.84;97105.47;4987865;28;20023;-80
2024/04/16 05:28:41;;;;;;;28.13;15.20;;;12.30;99.90;;;17.53;60.13;97102.81;4994777;28;20008;-80
2024/04/16 05:31:09;;;;;;;29.08;14.73;;;12.30;99.90;;;17.59;59.69;97107.31;4986889;28;20313;-80
2024/04/16 05:33:39;;;;;;;29.83;18.05;;;12.30;99.90;;;17.65;59.78;97116.31;5007086;28;20441;-80
2024/04/16 05:36:08;;;;;;;31.55;16.98;;;12.40;99.90;;;17.60;59.50;97119.56;5008624;28;20009;-80
2024/04/16 05:38:39;;;;;;;28.92;15.70;;;12.40;99.90;;;17.65;60.08;97119.75;4985110;28;20025;-80
2024/04/16 05:41:10;;;;;;;29.20;17.63;;;12.50;99.90;;;17.70;59.91;97117.34;4987209;28;20008;-79
2024/04/16 05:43:40;;;;;;;29.42;15.95;;;12.60;99.90;;;17.71;59.65;97121.63;4993024;28;20009;-80
2024/04/16 05:46:08;;;;;;;27.35;15.75;;;12.80;99.90;;;17.82;60.28;97118.34;4988106;28;20004;-80
2024/04/16 05:48:39;;;;;;;33.42;16.35;;;12.90;99.90;;;17.90;60.22;97115.53;4984991;28;20009;-80
2024/04/16 05:51:06;;;;;;;27.98;15.68;;;13.00;99.90;;;17.96;59.55;97104.13;4991568;28;20349;-80
2024/04/16 05:53:37;;;;;;;32.75;17.80;;;13.20;99.90;;;18.05;59.85;97107.38;4978087;28;20475;-80
2024/04/16 05:56:05;;;;;;;35.22;18.13;;;13.40;99.90;;;18.15;59.20;97108.59;4991520;28;20081;-80
2024/04/16 05:58:38;;;;;;;32.05;17.63;;;13.50;99.90;;;18.24;59.19;97105.75;4993488;28;20084;-80
2024/04/16 06:01:06;;;;;;;33.70;17.80;;;13.60;99.90;;;18.32;59.67;97102.88;4993462;28;20021;-80
2024/04/16 06:03:38;;;;;;;29.92;17.00;;;13.80;99.90;;;18.40;59.65;97107.97;4998392;28;20008;-79
2024/04/16 06:06:06;;;;;;;34.50;16.42;;;13.90;99.90;;;18.48;59.27;97110.38;4989827;28;20087;-80
2024/04/16 06:08:36;;;;;;;32.97;16.80;;;14.10;99.90;;;18.65;59.32;97096.53;4998245;28;20023;-80
2024/04/16 06:11:04;;;;;;;32.95;17.13;;;14.30;99.90;;;18.79;59.36;97092.00;5015628;28;20016;-80
2024/04/16 06:13:42;;;;;;;31.10;18.60;;;14.50;99.90;;;19.00;58.83;97089.06;5031352;28;20017;-81
2024/04/16 06:16:10;;;;;;;31.85;17.30;;;14.70;99.90;;;19.20;58.66;97081.03;5012072;28;20099;-80
2024/04/16 06:18:42;;;;;;;37.67;18.20;;;14.90;99.90;;;19.38;58.37;97082.97;4988669;28;20104;-80
2024/04/16 06:21:10;;;;;;;37.80;17.90;;;15.10;99.90;;;19.53;58.04;97072.91;5015961;28;20480;-80
2024/04/16 06:23:45;;;;;;;34.38;16.27;;;15.20;99.90;;;19.66;57.88;97067.50;5013706;28;20016;-80
2024/04/16 06:26:18;;;;;;;31.05;17.02;;;15.30;99.90;;;19.79;57.43;97063.97;5015851;28;20479;-79
2024/04/16 06:28:51;;;;;;;34.38;16.02;;;15.50;99.90;;;19.84;57.53;97046.34;5007747;28;20032;-79
2024/04/16 06:31:19;;;;;;;38.33;15.75;;;15.50;99.90;;;19.98;57.57;97045.22;4999335;28;20549;-80
2024/04/16 06:33:49;;;;;;;42.25;17.17;;;15.80;99.90;;;20.07;56.88;97041.25;5010516;28;20016;-79
2024/04/16 06:36:20;;;;;;;45.50;17.75;;;15.90;99.90;;;20.22;57.29;97037.44;4997152;28;20023;-79
2024/04/16 06:38:48;;;;;;;42.07;15.47;;;16.00;99.90;;;20.36;57.28;97038.94;5019523;28;20016;-80
2024/04/16 06:41:18;;;;;;;42.55;16.20;;;16.10;99.90;;;20.48;56.49;97032.66;5006660;28;20016;-79
2024/04/16 06:43:49;;;;;;;34.42;13.80;;;16.40;99.90;;;20.66;56.27;97032.69;5023601;28;20008;-79
2024/04/16 06:46:19;;;;;;;47.10;12.27;;;16.70;99.90;;;20.83;55.53;97040.88;5018002;28;20015;-80
2024/04/16 06:48:50;;;;;;;33.03;11.93;;;16.70;99.90;;;20.95;54.12;97038.28;5021639;28;20016;-80
2024/04/16 06:51:20;;;;;;;20.80;10.40;;;16.70;99.90;;;21.01;53.59;97024.88;4993180;28;20016;-81
2024/04/16 06:53:50;;;;;;;20.13;9.77;;;16.70;99.90;;;21.12;53.03;97026.00;4990666;28;20029;-80
2024/04/16 06:56:20;;;;;;;21.23;8.27;;;16.80;99.90;;;21.25;52.27;97028.47;4994472;28;20016;-80
2024/04/16 06:58:50;;;;;;;27.40;8.65;;;17.10;99.30;;;21.44;51.31;97029.25;5016170;28;20511;-80
2024/04/16 07:01:25;;;;;;;22.50;6.60;;;17.40;96.10;;;21.59;49.92;97026.97;4996949;28;20594;-80
2024/04/16 07:03:53;;;;;;;18.42;5.72;;;17.40;92.30;;;21.67;48.40;97021.31;4988795;28;20639;-79
2024/04/16 07:06:23;;;;;;;25.63;6.90;;;17.50;89.40;;;21.81;47.81;97019.25;4995719;28;20131;-79
2024/04/16 07:08:54;;;;;;;16.52;4.93;;;17.70;89.40;;;21.97;46.71;97018.59;5033810;28;20027;-79
2024/04/16 07:11:21;;;;;;;19.02;6.53;;;17.90;86.30;;;22.07;46.11;97018.81;5012071;28;20027;-81
2024/04/16 07:13:54;;;;;;;14.98;4.90;;;17.90;86.80;;;22.20;45.05;97021.25;4993822;28;20021;-80
2024/04/16 07:16:22;;;;;;;15.43;4.65;;;17.90;84.10;;;22.30;45.32;97016.16;5002117;28;20025;-80
2024/04/16 07:18:52;;;;;;;11.52;3.15;;;18.20;84.50;;;22.40;43.05;96996.91;4988771;28;20012;-80
2024/04/16 07:21:20;;;;;;;11.88;3.28;;;18.30;77.50;;;22.56;42.60;97004.16;4996680;28;20028;-79
2024/04/16 07:23:56;;;;;;;12.68;3.17;;;18.40;77.10;;;22.69;42.67;97001.28;5007701;28;20016;-80
2024/04/16 07:26:28;;;;;;;13.90;4.30;;;18.50;77.90;;;22.80;42.24;97005.78;5010115;28;20027;-80
2024/04/16 07:29:07;;;;;;;12.32;5.05;;;18.50;79.70;;;22.89;44.08;97003.53;5001947;28;20031;-80
2024/04/16 07:31:34;;;;;;;17.00;4.47;;;18.70;82.50;;;23.01;43.09;96997.13;5019708;28;20028;-80
2024/04/16 07:34:05;;;;;;;8.55;2.97;;;18.80;80.40;;;23.11;40.56;96992.00;5013744;28;20487;-80
2024/04/16 07:36:34;;;;;;;8.52;2.13;;;18.90;73.80;;;23.20;39.29;96989.72;4989331;28;20071;-79
2024/04/16 07:39:05;;;;;;;8.60;1.55;;;18.90;69.00;;;23.24;37.14;97001.56;5003815;28;20017;-80
2024/04/16 07:41:32;;;;;;;10.63;2.90;;;18.90;67.30;;;23.33;38.30;96997.44;5009813;28;20347;-80
2024/04/16 07:44:05;;;;;;;10.05;2.22;;;19.10;70.00;;;23.48;37.76;96999.63;5012970;28;20016;-79
2024/04/16 07:46:33;;;;;;;11.57;2.33;;;19.30;68.10;;;23.54;36.10;97004.00;4989624;28;20025;-79
2024/04/16 07:49:04;;;;;;;9.68;2.63;;;19.30;65.80;;;23.62;36.61;96995.56;5006144;28;20016;-79
2024/04/16 07:51:32;;;;;;;6.20;1.63;;;19.40;65.90;;;23.77;36.71;97001.97;4993313;28;20071;-80
2024/04/16 07:54:02;;;;;;;4.80;1.85;;;19.60;66.20;;;23.92;36.10;97005.94;4990697;28;20029;-80
2024/04/16 07:56:30;;;;;;;7.25;2.40;;;19.60;64.80;;;24.00;35.68;97001.00;4991216;28;20024;-80
2024/04/16 07:59:00;;;;;;;8.18;2.20;;;19.70;64.20;;;24.09;35.70;97004.88;4990794;28;20028;-80
2024/04/16 08:01:31;;;;;;;16.80;2.30;;;19.80;65.10;;;24.21;35.07;97008.28;4991013;28;20016;-79
2024/04/16 08:04:01;;;;;;;8.77;1.98;;;19.90;62.50;;;24.31;34.35;97012.16;4990417;28;20452;-80
2024/04/16 08:06:29;;;;;;;8.93;1.55;;;19.90;61.10;;;24.41;33.91;97004.25;5014002;28;20456;-80
2024/04/16 08:09:00;;;;;;;5.07;1.60;;;20.10;60.80;;;24.55;33.72;97008.22;4986934;28;20017;-80
2024/04/16 08:11:28;;;;;;;6.13;1.40;;;20.40;59.20;;;24.57;31.03;97009.56;4999057;28;20016;-80
2024/04/16 08:13:58;;;;;;;1.80;0.60;;;20.10;56.00;;;24.56;28.58;97010.66;5017768;28;20070;-80
2024/04/16 08:16:26;;;;;;;3.65;0.63;;;20.20;50.00;;;24.58;27.69;97018.41;5013031;28;20016;-80
2024/04/16 08:19:04;;;;;;;2.10;0.40;;;20.30;48.40;;;24.49;24.59;97010.00;5005630;28;20500;-80
2024/04/16 08:21:32;;;;;;;3.17;0.50;;;20.20;43.00;;;24.53;24.15;97013.00;5020222;28;20016;-80
2024/04/16 08:24:02;;;;;;;7.18;0.68;;;20.40;42.50;;;24.62;24.03;97015.00;4995788;28;20083;-80
2024/04/16 08:26:30;;;;;;;2.88;0.50;;;20.60;41.30;;;24.72;23.47;97025.84;4989419;28;20028;-81
2024/04/16 08:29:00;;;;;;;2.53;0.30;;;20.70;39.40;;;24.75;22.12;97029.88;4989022;28;20013;-80
2024/04/16 08:31:28;;;;;;;3.67;0.30;;;20.60;38.00;;;24.80;21.62;97017.34;4988202;28;20027;-80
2024/04/16 08:34:01;;;;;;;1.42;0.10;;;20.60;36.90;;;24.80;21.90;97024.56;4987696;28;20028;-80
2024/04/16 08:36:32;;;;;;;1.85;0.25;;;20.60;37.20;;;24.85;20.71;97042.59;5012303;28;20532;-80
2024/04/16 08:39:02;;;;;;;1.77;0.20;;;20.60;35.90;;;24.77;20.35;97027.75;4988960;28;20404;-80
2024/04/16 08:41:35;;;;;;;3.53;0.10;;;20.50;35.30;;;24.82;20.38;97030.53;4989036;28;20024;-80
2024/04/16 08:44:12;;;;;;;2.35;0.10;;;20.60;34.80;;;24.82;20.21;97059.97;4989986;28;20026;-81
2024/04/16 08:46:47;;;;;;;3.75;0.22;;;20.60;34.30;;;24.73;19.81;97032.78;5005095;28;20016;-81
2024/04/16 08:49:17;;;;;;;2.53;0.20;;;20.60;34.40;;;24.80;19.51;97037.97;5018458;28;20031;-79
2024/04/16 08:51:48;;;;;;;0.38;0.10;;;20.70;33.50;;;24.86;19.11;97044.25;5000979;28;20017;-79
2024/04/16 08:54:22;;;;;;;2.40;0.37;;;20.80;33.20;;;24.92;19.22;97061.97;4987385;28;20012;-80
2024/04/16 08:56:50;;;;;;;0.77;0.10;;;20.80;32.50;;;24.92;18.79;97048.59;4988406;28;20017;-81
2024/04/16 08:59:21;;;;;;;1.98;0.25;;;20.70;32.50;;;24.91;18.88;97050.47;4990307;28;20017;-80
2024/04/16 09:01:49;;;;;;;1.65;0.43;;;20.90;32.90;;;24.99;18.38;97060.75;5003404;28;20477;-80
2024/04/16 09:04:20;;;;;;;2.13;0.35;;;20.90;31.90;;;25.00;18.43;97051.63;4991401;28;20012;-80
2024/04/16 09:06:52;;;;;;;2.65;0.30;;;20.90;32.10;;;25.06;19.29;97053.31;5001989;28;20046;-79
2024/04/16 09:09:22;;;;;;;1.35;0.20;;;21.10;32.30;;;25.12;18.27;97059.53;5002355;28;20027;-80
2024/04/16 09:11:56;;;;;;;3.20;0.28;;;21.00;31.20;;;25.26;18.75;97058.91;4990440;28;20012;-80
2024/04/16 09:14:27;;;;;;;2.80;0.30;;;21.30;31.60;;;25.39;18.37;97068.41;5011904;28;20028;-80
2024/04/16 09:17:01;;;;;;;5.47;0.73;;;21.30;31.40;;;25.51;18.23;97070.97;5003885;28;20086;-81
2024/04/16 09:19:31;;;;;;;2.10;0.28;;;21.50;30.60;;;25.52;18.09;97061.91;4994867;28;20067;-80
2024/04/16 09:22:02;;;;;;;4.78;0.57;;;21.50;31.20;;;25.62;16.89;97054.75;4988118;28;20012;-80
2024/04/16 09:24:37;;;;;;;13.18;0.90;;;21.30;29.20;;;25.62;16.81;97072.72;4986000;28;20012;-79
2024/04/16 09:27:10;;;;;;;3.35;0.30;;;21.30;28.90;;;25.53;16.02;97068.84;4987153;28;20544;-79
2024/04/16 09:29:45;;;;;;;5.35;0.30;;;21.30;28.30;;;25.48;15.95;97072.28;4988781;28;20017;-79
2024/04/16 09:32:18;;;;;;;9.20;0.75;;;21.30;28.30;;;25.48;15.88;97066.09;4988917;28;20020;-79
2024/04/16 09:34:53;;;;;;;6.05;0.45;;;21.30;28.00;;;25.40;15.17;97090.66;4988853;28;20479;-80
2024/04/16 09:37:23;;;;;;;1.58;0.28;;;21.20;27.10;;;25.30;15.04;97128.84;4987187;28;20017;-80
2024/04/16 09:40:02;;;;;;;8.68;0.55;;;21.10;26.60;;;25.22;14.96;97089.94;4988554;28;20017;-80
2024/04/16 09:42:37;;;;;;;1.30;0.30;;;21.10;26.70;;;25.20;15.56;97089.38;5008530;28;20023;-81
2024/04/16 09:45:09;;;;;;;1.20;0.30;;;21.20;26.80;;;25.28;15.17;97110.38;5014688;28;20463;-80
2024/04/16 09:47:39;;;;;;;2.55;0.30;;;21.10;26.80;;;25.23;15.57;97088.88;5017383;28;20016;-80
2024/04/16 09:50:10;;;;;;;8.20;0.40;;;21.20;27.60;;;25.23;14.74;97090.72;4988680;28;20024;-79
2024/04/16 09:52:40;;;;;;;1.97;0.33;;;21.00;25.90;;;25.25;14.59;97092.13;4988116;28;20547;-79
2024/04/16 09:55:11;;;;;;;4.28;0.30;;;21.10;25.90;;;25.27;14.40;97097.22;4987556;28;20243;-79
2024/04/16 09:57:40;;;;;;;9.68;1.27;;;21.10;26.00;;;25.18;13.98;97099.53;5011563;28;20016;-79
2024/04/16 10:00:16;;;;;;;8.07;0.35;;;21.00;25.40;;;25.10;13.44;97093.78;4989379;28;20012;-79
2024/04/16 10:02:49;;;;;;;0.65;0.22;;;20.90;24.50;;;25.15;14.17;97102.72;4987455;28;20017;-80
2024/04/16 10:05:24;;;;;;;0.95;0.10;;;21.20;24.80;;;25.07;13.81;97097.78;4987431;28;20028;-79
2024/04/16 10:07:55;;;;;;;6.13;0.32;;;20.80;24.80;;;24.97;13.89;97092.28;4987101;28;20027;-78
2024/04/16 10:10:25;;;;;;;3.15;0.35;;;20.80;24.50;;;24.99;12.98;97063.41;4956608;28;20036;-79
2024/04/16 10:12:54;;;;;;;2.55;0.50;;;20.90;23.80;;;24.91;13.24;97097.81;4980347;28;20016;-79
2024/04/16 10:15:31;;;;;;;3.13;0.35;;;20.70;23.70;;;24.91;12.92;97125.41;4986297;28;20415;-80
2024/04/16 10:18:05;;;;;;;1.55;0.22;;;20.70;23.20;;;24.76;13.20;97106.44;4987198;28;20027;-79
2024/04/16 10:20:50;;;;;;;5.72;0.55;;;20.90;24.10;;;24.71;13.99;97114.41;4989089;28;20017;-79
2024/04/16 10:23:21;;;;;;;0.40;0.28;;;20.80;24.50;;;24.80;13.71;97145.03;4990221;28;20016;-80